Red Oak, Arkansas
Current Conditions -  °F | °C
As of 6:53 AM on Friday 28 Nov 2014 (Local Time) from KHOT Reporting Station
Clear Clear  
Wind Chill: 31°   Ceiling: Unl
Heat Index: 36°   Visibility: 10mi
Dew Point: 30°   Wind: 6mph
Humidity: 79%   Direction: 150°SSE
Pressure: 30.35"   Gusts: NA
Location:  34.5331°N, 93.0035°W
Report Text: KHOT 281253Z AUTO 15005KT 10SM CLR 02/M01 A3035 RMK AO2 SLP281 T00221011
Loading
Personal Weather Stations






























Interactive Weather Map New forecast layout! Learn more

10-Day Weather Forecast

Advertisements
Track Severe Weather on mobile